Time;durP1;ratioP1;P1;durP2;ratioP2;P2;SDS_P1;SDS_P2;PMS_P1;PMS_P2;Temp;Humidity;BMP_temperature;BMP_pressure;BME280_temperature;BME280_humidity;BME280_pressure;Samples;Min_cycle;Max_cycle;Signal;HPM_P1;HPM_P2
2023/10/23 00:02:25;;;;;;;12.38;8.73;;;;;;;8.42;100.00;101115.13;5054022;28;20133;-55
2023/10/23 00:04:53;;;;;;;12.18;8.93;;;;;;;8.43;100.00;101116.00;5053990;28;20049;-55
2023/10/23 00:07:23;;;;;;;11.43;8.98;;;;;;;8.38;100.00;101112.78;5050717;28;20072;-54
2023/10/23 00:09:51;;;;;;;12.52;8.48;;;;;;;8.34;100.00;101117.31;5051644;28;20049;-52
2023/10/23 00:12:19;;;;;;;14.48;9.00;;;;;;;8.34;100.00;101119.09;5053716;28;20407;-55
2023/10/23 00:14:47;;;;;;;10.80;8.38;;;;;;;8.31;100.00;101109.63;5053518;28;20049;-54
2023/10/23 00:17:15;;;;;;;10.75;8.13;;;;;;;8.27;100.00;101111.53;5053567;28;20072;-54
2023/10/23 00:19:43;;;;;;;10.63;7.80;;;;;;;8.25;100.00;101108.16;5053868;28;20053;-54
2023/10/23 00:22:11;;;;;;;11.63;8.23;;;;;;;8.18;100.00;101109.41;5053667;28;20577;-54
2023/10/23 00:24:41;;;;;;;11.32;8.07;;;;;;;8.18;100.00;101109.41;5052509;28;20048;-54
2023/10/23 00:27:09;;;;;;;10.50;8.05;;;;;;;8.11;100.00;101108.00;5050375;28;20048;-56
2023/10/23 00:29:37;;;;;;;13.60;8.77;;;;;;;8.10;100.00;101111.56;5050202;28;20041;-53
2023/10/23 00:32:06;;;;;;;18.70;8.02;;;;;;;8.07;100.00;101116.94;5050403;28;20045;-55
2023/10/23 00:34:34;;;;;;;12.30;7.85;;;;;;;8.03;100.00;101112.78;5053166;28;20487;-53
2023/10/23 00:37:02;;;;;;;12.35;8.10;;;;;;;8.02;100.00;101116.34;5052042;28;20045;-56
2023/10/23 00:39:33;;;;;;;11.13;8.15;;;;;;;8.00;100.00;101113.78;5050609;28;20595;-52
2023/10/23 00:42:02;;;;;;;11.15;7.88;;;;;;;7.98;100.00;101125.28;5050176;28;20583;-54
2023/10/23 00:44:31;;;;;;;10.65;7.82;;;;;;;7.96;100.00;101127.94;5048493;28;20045;-57
2023/10/23 00:46:59;;;;;;;12.60;8.15;;;;;;;7.95;100.00;101134.97;5052725;28;20049;-56
2023/10/23 00:49:27;;;;;;;16.27;8.57;;;;;;;7.95;100.00;101134.13;5053124;28;20052;-55
2023/10/23 00:51:56;;;;;;;11.43;7.90;;;;;;;7.95;100.00;101131.53;5052567;28;20522;-53
2023/10/23 00:54:25;;;;;;;12.32;8.05;;;;;;;7.87;100.00;101124.03;5052643;28;20075;-52
2023/10/23 00:56:53;;;;;;;12.20;7.55;;;;;;;7.81;100.00;101119.06;5053001;28;20049;-54
2023/10/23 00:59:23;;;;;;;11.27;7.18;;;;;;;7.73;100.00;101127.31;5052660;28;20055;-54
2023/10/23 01:01:52;;;;;;;12.35;8.60;;;;;;;7.78;100.00;101129.72;5052835;28;20049;-52
2023/10/23 01:04:20;;;;;;;12.35;8.52;;;;;;;7.74;100.00;101128.16;5052783;28;20136;-54
2023/10/23 01:06:50;;;;;;;14.32;8.30;;;;;;;7.71;100.00;101133.56;5050861;28;20045;-55
2023/10/23 01:09:18;;;;;;;12.35;7.88;;;;;;;7.73;100.00;101129.06;5050527;28;20061;-53
2023/10/23 01:11:46;;;;;;;13.35;8.05;;;;;;;7.66;100.00;101128.53;5049589;28;20052;-53
2023/10/23 01:14:14;;;;;;;10.60;7.28;;;;;;;7.70;100.00;101126.63;5049588;28;20080;-54
2023/10/23 01:16:43;;;;;;;12.55;7.55;;;;;;;7.67;100.00;101130.22;5049343;28;20507;-55
2023/10/23 01:19:12;;;;;;;10.90;7.43;;;;;;;7.67;100.00;101137.25;5051033;28;20152;-52
2023/10/23 01:21:40;;;;;;;13.20;8.77;;;;;;;7.65;100.00;101129.47;5052422;28;20447;-54
2023/10/23 01:24:10;;;;;;;11.80;7.82;;;;;;;7.63;100.00;101133.09;5052273;28;20060;-53
2023/10/23 01:26:39;;;;;;;13.82;9.18;;;;;;;7.61;100.00;101127.94;5052289;28;20045;-54
2023/10/23 01:29:07;;;;;;;14.80;8.73;;;;;;;7.56;100.00;101127.28;5052365;28;20506;-54
2023/10/23 01:31:35;;;;;;;14.05;9.50;;;;;;;7.52;100.00;101133.59;5051069;28;20048;-54
2023/10/23 01:34:07;;;;;;;15.55;9.98;;;;;;;7.53;100.00;101135.31;5052291;28;20056;-54
2023/10/23 01:36:35;;;;;;;16.15;10.63;;;;;;;7.53;100.00;101148.38;5052589;28;20136;-54
2023/10/23 01:39:04;;;;;;;17.05;10.60;;;;;;;7.52;100.00;101142.28;5051850;28;20045;-53
2023/10/23 01:41:32;;;;;;;15.30;10.75;;;;;;;7.46;100.00;101147.81;5049410;28;20474;-54
2023/10/23 01:44:02;;;;;;;20.00;11.15;;;;;;;7.42;100.00;101144.50;5048794;28;20458;-53
2023/10/23 01:46:30;;;;;;;16.40;10.77;;;;;;;7.39;100.00;101147.25;5050894;28;20045;-53
2023/10/23 01:48:58;;;;;;;16.02;10.27;;;;;;;7.40;100.00;101151.59;5048698;28;20041;-53
2023/10/23 01:51:27;;;;;;;17.33;11.02;;;;;;;7.37;100.00;101158.72;5048658;28;20391;-52
2023/10/23 01:53:55;;;;;;;19.75;11.88;;;;;;;7.41;100.00;101163.72;5048535;28;20059;-54
2023/10/23 01:56:24;;;;;;;21.88;12.13;;;;;;;7.40;100.00;101162.06;5049103;28;20040;-55
2023/10/23 01:58:52;;;;;;;17.60;11.48;;;;;;;7.44;100.00;101157.50;5048447;28;20043;-54
2023/10/23 02:01:23;;;;;;;15.95;10.18;;;;;;;7.46;100.00;101158.28;5050663;28;20132;-55
2023/10/23 02:03:50;;;;;;;16.38;10.88;;;;;;;7.47;100.00;101156.50;5051339;28;20045;-53
2023/10/23 02:06:19;;;;;;;16.27;10.23;;;;;;;7.50;100.00;101154.59;5048002;28;20049;-54
2023/10/23 02:08:47;;;;;;;16.95;10.27;;;;;;;7.53;100.00;101151.84;5047875;28;20033;-55
2023/10/23 02:11:17;;;;;;;12.60;9.10;;;;;;;7.62;100.00;101153.16;5051582;28;20075;-52
2023/10/23 02:13:45;;;;;;;17.00;9.30;;;;;;;7.63;100.00;101154.03;5051440;28;20052;-54
2023/10/23 02:16:13;;;;;;;11.48;7.70;;;;;;;7.65;100.00;101154.78;5050151;28;20057;-54
2023/10/23 02:18:42;;;;;;;11.88;8.18;;;;;;;7.69;100.00;101156.34;5046974;28;20049;-55
2023/10/23 02:21:10;;;;;;;12.20;8.43;;;;;;;7.73;100.00;101158.75;5048244;28;20049;-52
2023/10/23 02:23:38;;;;;;;11.07;7.90;;;;;;;7.78;100.00;101155.91;5050131;28;20057;-53
2023/10/23 02:26:23;;;;;;;13.15;8.95;;;;;;;7.87;100.00;101162.47;5051282;28;20049;-53
2023/10/23 02:28:51;;;;;;;13.75;8.70;;;;;;;7.85;100.00;101167.75;5051097;28;20037;-54
2023/10/23 02:31:19;;;;;;;11.95;8.48;;;;;;;7.89;100.00;101158.00;5051863;28;20094;-53
2023/10/23 02:33:49;;;;;;;12.57;8.32;;;;;;;7.92;100.00;101163.06;5051599;28;20052;-54
2023/10/23 02:36:17;;;;;;;12.02;8.45;;;;;;;7.92;100.00;101163.94;5051440;28;20053;-55
2023/10/23 02:38:45;;;;;;;11.27;7.88;;;;;;;7.97;100.00;101158.47;5049335;28;20443;-54
2023/10/23 02:41:13;;;;;;;11.90;8.38;;;;;;;8.03;100.00;101163.41;5048426;28;20136;-54
2023/10/23 02:43:41;;;;;;;13.13;8.73;;;;;;;8.06;100.00;101167.66;5051179;28;20044;-53
2023/10/23 02:46:10;;;;;;;13.85;9.68;;;;;;;8.09;100.00;101165.72;5050161;28;20075;-54
2023/10/23 02:48:40;;;;;;;11.40;8.13;;;;;;;8.13;100.00;101159.41;5047497;28;20045;-53
2023/10/23 02:51:10;;;;;;;12.52;8.45;;;;;;;8.19;100.00;101166.09;5049526;28;20060;-53
2023/10/23 02:53:39;;;;;;;12.95;9.15;;;;;;;8.22;100.00;101163.34;5051065;28;20064;-54
2023/10/23 02:56:14;;;;;;;13.17;8.67;;;;;;;8.25;100.00;101175.44;5050957;28;20136;-53
2023/10/23 02:58:42;;;;;;;12.82;8.65;;;;;;;8.26;100.00;101172.75;5048132;28;20546;-55
2023/10/23 03:01:17;;;;;;;14.07;9.45;;;;;;;8.26;100.00;101174.50;5049111;28;20521;-55
2023/10/23 03:03:46;;;;;;;14.43;8.57;;;;;;;8.28;100.00;101170.06;5051157;28;20110;-54
2023/10/23 03:06:16;;;;;;;12.70;8.85;;;;;;;8.28;100.00;101170.06;5051089;28;20049;-55
2023/10/23 03:08:44;;;;;;;14.50;9.48;;;;;;;8.31;100.00;101176.91;5051076;28;20041;-55
2023/10/23 03:11:12;;;;;;;12.20;8.23;;;;;;;8.35;100.00;101184.53;5051325;28;20041;-54
2023/10/23 03:13:40;;;;;;;13.52;9.18;;;;;;;8.36;100.00;101182.78;5051478;28;20063;-55
2023/10/23 03:16:08;;;;;;;11.85;8.88;;;;;;;8.37;100.00;101179.22;5051125;28;20045;-55
2023/10/23 03:18:37;;;;;;;11.07;8.07;;;;;;;8.42;100.00;101185.06;5048295;28;20116;-55
2023/10/23 03:21:05;;;;;;;12.27;9.02;;;;;;;8.41;100.00;101179.00;5046712;28;20049;-54
2023/10/23 03:23:35;;;;;;;12.63;8.77;;;;;;;8.43;100.00;101187.59;5050650;28;20041;-54
2023/10/23 03:26:04;;;;;;;12.00;8.35;;;;;;;8.44;100.00;101183.22;5049570;28;20134;-52
2023/10/23 03:28:32;;;;;;;13.15;9.45;;;;;;;8.47;100.00;101185.72;5047816;28;20080;-54
2023/10/23 03:31:03;;;;;;;13.23;8.35;;;;;;;8.45;100.00;101177.94;5053520;28;20472;-54
2023/10/23 03:33:32;;;;;;;12.00;8.98;;;;;;;8.46;100.00;101178.78;5053337;28;20049;-53
2023/10/23 03:36:01;;;;;;;13.18;8.35;;;;;;;8.49;100.00;101181.22;5054517;28;20519;-54
2023/10/23 03:38:29;;;;;;;13.15;8.82;;;;;;;8.50;100.00;101174.25;5054565;28;20049;-54
2023/10/23 03:41:00;;;;;;;13.55;8.93;;;;;;;8.51;100.00;101176.78;5054513;28;20049;-55
2023/10/23 03:43:28;;;;;;;12.60;8.80;;;;;;;8.53;100.00;101184.56;5054719;28;20052;-55
2023/10/23 03:45:56;;;;;;;19.48;11.25;;;;;;;8.54;100.00;101186.25;5053906;28;20052;-55
2023/10/23 03:48:25;;;;;;;16.48;10.80;;;;;;;8.55;100.00;101190.56;5051475;28;20061;-53
2023/10/23 03:50:59;;;;;;;28.85;11.98;;;;;;;8.56;100.00;101189.63;5050576;28;20044;-54
2023/10/23 03:53:30;;;;;;;21.17;11.70;;;;;;;8.58;100.00;101186.00;5052761;28;20077;-53
2023/10/23 03:56:00;;;;;;;22.02;12.20;;;;;;;8.60;100.00;101184.19;5054064;28;20045;-55
2023/10/23 03:58:28;;;;;;;24.48;11.70;;;;;;;8.65;100.00;101183.94;5054057;28;20077;-54
2023/10/23 04:00:56;;;;;;;21.42;10.85;;;;;;;8.68;100.00;101189.00;5053774;28;20055;-53
2023/10/23 04:03:24;;;;;;;19.65;11.20;;;;;;;8.71;100.00;101183.63;5053765;28;20057;-54
2023/10/23 04:05:53;;;;;;;20.55;11.60;;;;;;;8.73;100.00;101186.16;5052565;28;20053;-55
2023/10/23 04:08:21;;;;;;;26.83;11.48;;;;;;;8.76;100.00;101189.47;5052027;28;20107;-55
2023/10/23 04:10:50;;;;;;;34.03;10.90;;;;;;;8.78;100.00;101189.38;5050912;28;20037;-54
2023/10/23 04:13:19;;;;;;;27.85;10.75;;;;;;;8.79;100.00;101191.06;5053576;28;20399;-54
2023/10/23 04:15:54;;;;;;;18.67;10.70;;;;;;;8.78;100.00;101192.00;5053794;28;20056;-56
2023/10/23 04:18:24;;;;;;;24.80;11.07;;;;;;;8.77;100.00;101193.78;5053889;28;20078;-54
2023/10/23 04:21:03;;;;;;;26.85;10.68;;;;;;;8.82;100.00;101195.31;5053653;28;20037;-52
2023/10/23 04:23:31;;;;;;;42.08;10.90;;;;;;;8.89;100.00;101200.16;5053593;28;20578;-54
2023/10/23 04:26:02;;;;;;;20.17;9.82;;;;;;;8.86;100.00;101186.34;5053496;28;20044;-56
2023/10/23 04:28:32;;;;;;;17.48;10.65;;;;;;;8.88;100.00;101181.91;5053291;28;20060;-53
2023/10/23 04:31:01;;;;;;;14.82;10.07;;;;;;;8.85;100.00;101185.53;5051115;28;20059;-53
2023/10/23 04:33:29;;;;;;;22.42;10.35;;;;;;;8.87;100.00;101188.06;5050675;28;20049;-54
2023/10/23 04:35:58;;;;;;;14.57;9.60;;;;;;;8.92;100.00;101186.03;5051703;28;20463;-54
2023/10/23 04:38:26;;;;;;;14.00;9.50;;;;;;;8.91;100.00;101185.19;5053405;28;20053;-48
2023/10/23 04:40:55;;;;;;;16.00;9.98;;;;;;;8.93;100.00;101190.34;5052469;28;20037;-47
2023/10/23 04:43:23;;;;;;;14.77;9.75;;;;;;;8.93;100.00;101191.22;5051385;28;20045;-48
2023/10/23 04:45:53;;;;;;;13.90;9.50;;;;;;;8.96;100.00;101196.28;5049017;28;20044;-48
2023/10/23 04:48:22;;;;;;;15.23;9.45;;;;;;;9.00;100.00;101196.13;5052386;28;20889;-46
2023/10/23 04:50:50;;;;;;;13.65;9.00;;;;;;;8.99;100.00;101194.44;5052955;28;20049;-47
2023/10/23 04:53:19;;;;;;;14.10;9.73;;;;;;;8.95;100.00;101199.84;5052891;28;20068;-46
2023/10/23 04:55:47;;;;;;;15.23;9.02;;;;;;;9.01;100.00;101189.94;5052939;28;20435;-47
2023/10/23 04:58:15;;;;;;;13.05;8.75;;;;;;;9.01;100.00;101190.78;5052637;28;20045;-47
2023/10/23 05:00:44;;;;;;;13.85;9.30;;;;;;;9.02;100.00;101189.03;5052767;28;20103;-47
2023/10/23 05:03:13;;;;;;;12.85;9.20;;;;;;;9.03;100.00;101188.09;5052711;28;20048;-50
2023/10/23 05:05:46;;;;;;;14.20;9.85;;;;;;;9.06;100.00;101196.66;5052789;28;20056;-48
2023/10/23 05:08:15;;;;;;;20.80;10.52;;;;;;;9.03;100.00;101193.34;5052950;28;20583;-45
2023/10/23 05:10:43;;;;;;;21.23;10.52;;;;;;;9.00;100.00;101201.38;5052945;28;20506;-47
2023/10/23 05:13:11;;;;;;;20.27;10.85;;;;;;;8.99;100.00;101197.06;5052587;28;20052;-46
2023/10/23 05:15:39;;;;;;;15.25;10.27;;;;;;;9.00;100.00;101196.97;5050613;28;20072;-47
2023/10/23 05:18:10;;;;;;;13.63;9.48;;;;;;;9.01;100.00;101196.03;5049140;28;20061;-47
2023/10/23 05:20:39;;;;;;;14.85;9.55;;;;;;;9.02;100.00;101196.91;5048191;28;20052;-51
2023/10/23 05:23:07;;;;;;;13.15;9.10;;;;;;;9.04;100.00;101202.91;5052617;28;20495;-49
2023/10/23 05:25:36;;;;;;;15.07;9.73;;;;;;;9.06;100.00;101201.88;5052333;28;20041;-48
2023/10/23 05:28:05;;;;;;;15.20;10.13;;;;;;;9.08;100.00;101193.94;5052393;28;20063;-48
2023/10/23 05:30:33;;;;;;;14.52;9.75;;;;;;;9.12;100.00;101198.94;5052213;28;20044;-47
2023/10/23 05:33:01;;;;;;;12.55;8.93;;;;;;;9.10;100.00;101195.56;5052309;28;20102;-47
2023/10/23 05:35:30;;;;;;;12.05;8.52;;;;;;;9.09;100.00;101191.25;5050527;28;20152;-47
2023/10/23 05:37:59;;;;;;;15.93;9.50;;;;;;;9.09;100.00;101190.38;5052410;28;20537;-50
2023/10/23 05:40:27;;;;;;;13.57;9.77;;;;;;;9.08;100.00;101181.69;5052252;28;20777;-51
2023/10/23 05:42:55;;;;;;;14.68;9.77;;;;;;;9.11;100.00;101193.78;5049024;28;20073;-46
2023/10/23 05:45:24;;;;;;;12.90;9.57;;;;;;;9.11;100.00;101197.25;5049014;28;20103;-49
2023/10/23 05:47:52;;;;;;;14.73;9.45;;;;;;;9.14;100.00;101196.25;5051861;28;20498;-54
2023/10/23 05:50:20;;;;;;;16.20;9.73;;;;;;;9.12;100.00;101191.09;5051623;28;20045;-56
2023/10/23 05:52:48;;;;;;;16.00;10.07;;;;;;;9.14;100.00;101197.06;5051323;28;20057;-55
2023/10/23 05:55:18;;;;;;;19.70;9.98;;;;;;;9.16;100.00;101199.63;5052125;28;20040;-55
2023/10/23 05:57:46;;;;;;;15.90;9.70;;;;;;;9.17;100.00;101198.69;5051806;28;20041;-54
2023/10/23 06:00:15;;;;;;;14.13;9.27;;;;;;;9.17;100.00;101200.47;5051639;28;20037;-54
2023/10/23 06:02:43;;;;;;;16.73;10.00;;;;;;;9.14;100.00;101212.00;5051803;28;20061;-55
2023/10/23 06:05:12;;;;;;;16.00;10.40;;;;;;;9.13;100.00;101205.91;5051633;28;20128;-55
2023/10/23 06:07:41;;;;;;;14.05;10.10;;;;;;;9.14;100.00;101210.19;5051830;28;20045;-55
2023/10/23 06:10:09;;;;;;;17.00;10.90;;;;;;;9.15;100.00;101203.19;5051493;28;20095;-54
2023/10/23 06:12:39;;;;;;;15.18;9.98;;;;;;;9.16;100.00;101201.41;5051548;28;20049;-54
2023/10/23 06:15:10;;;;;;;18.67;11.10;;;;;;;9.16;100.00;101207.50;5051607;28;20055;-53
2023/10/23 06:17:38;;;;;;;19.83;11.48;;;;;;;9.17;100.00;101201.31;5051787;28;20048;-54
2023/10/23 06:20:08;;;;;;;20.08;10.52;;;;;;;9.15;100.00;101205.81;5051698;28;20040;-54
2023/10/23 06:22:36;;;;;;;28.30;11.68;;;;;;;9.13;100.00;101207.66;5051454;28;20068;-54
2023/10/23 06:25:04;;;;;;;31.33;12.27;;;;;;;9.08;100.00;101213.16;5051471;28;20060;-55
2023/10/23 06:27:32;;;;;;;21.15;11.90;;;;;;;9.15;100.00;101213.69;5051626;28;20049;-54
2023/10/23 06:30:02;;;;;;;22.67;11.35;;;;;;;9.14;100.00;101209.38;5051481;28;20120;-55
2023/10/23 06:32:34;;;;;;;25.80;11.23;;;;;;;9.18;100.00;101210.91;5051447;28;20120;-54
2023/10/23 06:35:04;;;;;;;31.05;11.75;;;;;;;9.14;100.00;101210.19;5051495;28;20052;-55
2023/10/23 06:37:32;;;;;;;19.55;10.23;;;;;;;9.13;100.00;101215.53;5051751;28;20049;-55
2023/10/23 06:40:00;;;;;;;20.33;10.93;;;;;;;9.09;100.00;101209.63;5051432;28;20388;-55
2023/10/23 06:42:29;;;;;;;30.25;11.68;;;;;;;9.11;100.00;101213.00;5051516;28;20060;-55
2023/10/23 06:44:58;;;;;;;40.50;12.32;;;;;;;9.09;100.00;101208.75;5048504;28;20550;-54
2023/10/23 06:47:28;;;;;;;28.33;12.50;;;;;;;9.07;100.00;101210.63;5048365;28;20052;-55
2023/10/23 06:49:57;;;;;;;25.92;10.50;;;;;;;9.07;100.00;101215.88;5045976;28;20480;-55
2023/10/23 06:52:25;;;;;;;67.45;12.07;;;;;;;9.03;100.00;101214.34;5048508;28;20060;-54
2023/10/23 06:54:53;;;;;;;29.92;12.57;;;;;;;9.02;100.00;101218.72;5047843;28;20495;-54
2023/10/23 06:57:21;;;;;;;55.42;12.38;;;;;;;8.95;100.00;101223.44;5046493;28;20053;-55
2023/10/23 06:59:50;;;;;;;40.13;11.27;;;;;;;8.97;100.00;101218.09;5050425;28;20107;-55
2023/10/23 07:02:18;;;;;;;40.05;11.15;;;;;;;8.96;100.00;101216.44;5051234;28;20033;-54
2023/10/23 07:04:48;;;;;;;30.30;12.27;;;;;;;8.90;100.00;101214.13;5049647;28;20604;-55
2023/10/23 07:07:17;;;;;;;75.65;12.50;;;;;;;8.88;100.00;101219.44;5052155;28;20049;-53
2023/10/23 07:09:58;;;;;;;43.38;11.13;;;;;;;8.87;100.00;101225.63;5054241;28;20396;-55
2023/10/23 07:12:28;;;;;;;33.25;9.93;;;;;;;8.83;100.00;101225.88;5054367;28;20442;-55
2023/10/23 07:14:56;;;;;;;50.72;9.98;;;;;;;8.84;100.00;101235.44;5051389;28;20539;-53
2023/10/23 07:17:25;;;;;;;41.53;9.60;;;;;;;8.84;100.00;101236.28;5051760;28;20515;-54
2023/10/23 07:19:54;;;;;;;27.23;9.70;;;;;;;8.83;100.00;101237.19;5048513;28;20072;-54
2023/10/23 07:22:22;;;;;;;19.10;9.85;;;;;;;8.84;100.00;101225.78;5053971;28;20396;-54
2023/10/23 07:24:51;;;;;;;54.00;12.05;;;;;;;8.88;100.00;101222.06;5054827;28;20136;-54
2023/10/23 07:27:19;;;;;;;25.48;10.80;;;;;;;8.84;100.00;101220.53;5054945;28;20098;-55
2023/10/23 07:29:47;;;;;;;25.70;9.77;;;;;;;8.87;100.00;101224.78;5053501;28;20037;-54
2023/10/23 07:32:19;;;;;;;22.20;9.13;;;;;;;8.89;100.00;101225.53;5051517;28;20059;-55
2023/10/23 07:34:47;;;;;;;18.13;9.75;;;;;;;8.91;100.00;101216.66;5053247;28;20522;-56
2023/10/23 07:37:18;;;;;;;29.83;10.80;;;;;;;8.94;100.00;101220.91;5052903;28;20419;-54
2023/10/23 07:39:47;;;;;;;28.27;11.15;;;;;;;8.98;100.00;101222.44;5054348;28;20045;-55
2023/10/23 07:42:16;;;;;;;23.05;12.07;;;;;;;9.01;100.00;101226.69;5054454;28;20500;-56
2023/10/23 07:44:44;;;;;;;28.42;12.77;;;;;;;9.02;100.00;101228.38;5054385;28;20052;-55
2023/10/23 07:47:13;;;;;;;36.60;13.30;;;;;;;9.03;100.00;101232.72;5054521;28;20052;-55
2023/10/23 07:49:41;;;;;;;28.92;13.25;;;;;;;9.01;100.00;101224.06;5049800;28;20474;-56
2023/10/23 07:52:09;;;;;;;22.92;13.82;;;;;;;9.07;100.00;101227.22;5050993;28;20037;-56
2023/10/23 07:54:39;;;;;;;25.80;14.80;;;;;;;9.05;100.00;101229.09;5053600;28;20056;-56
2023/10/23 07:57:07;;;;;;;26.23;14.20;;;;;;;9.09;100.00;101228.00;5053806;28;20522;-56
2023/10/23 07:59:35;;;;;;;23.48;14.40;;;;;;;9.09;100.00;101224.50;5054033;28;20139;-56
2023/10/23 08:02:04;;;;;;;45.88;14.48;;;;;;;9.11;100.00;101230.53;5054017;28;20546;-55
2023/10/23 08:04:32;;;;;;;24.45;14.63;;;;;;;9.12;100.00;101226.94;5053968;28;20041;-55
2023/10/23 08:07:01;;;;;;;17.83;12.30;;;;;;;9.16;100.00;101231.09;5050783;28;20060;-56
2023/10/23 08:09:36;;;;;;;22.15;13.80;;;;;;;9.21;100.00;101223.00;5045690;28;20045;-56
2023/10/23 08:12:08;;;;;;;21.50;12.23;;;;;;;9.27;100.00;101239.28;5052161;28;20148;-54
2023/10/23 08:14:42;;;;;;;38.85;13.68;;;;;;;9.20;100.00;101235.25;5053896;28;20033;-54
2023/10/23 08:17:11;;;;;;;22.48;12.45;;;;;;;9.25;100.00;101228.00;5052769;28;20100;-54
2023/10/23 08:19:51;;;;;;;18.70;12.60;;;;;;;9.26;100.00;101229.69;5053643;28;20052;-56
2023/10/23 08:22:21;;;;;;;25.13;12.25;;;;;;;9.29;100.00;101231.31;5050524;28;20145;-55
2023/10/23 08:24:49;;;;;;;17.08;11.55;;;;;;;9.37;100.00;101228.28;5049211;28;20041;-55
2023/10/23 08:27:19;;;;;;;16.15;11.27;;;;;;;9.40;100.00;101228.13;5053443;28;20056;-57
2023/10/23 08:29:47;;;;;;;18.00;9.88;;;;;;;9.43;100.00;101220.06;5053475;28;20053;-54
2023/10/23 08:32:18;;;;;;;19.90;10.30;;;;;;;9.40;100.00;101225.50;5053276;28;20536;-55
2023/10/23 08:34:46;;;;;;;15.75;9.95;;;;;;;9.43;100.00;101226.16;5053400;28;20071;-56
2023/10/23 08:37:16;;;;;;;20.85;11.10;;;;;;;9.44;100.00;101213.91;5053570;28;20045;-55
2023/10/23 08:39:44;;;;;;;20.63;11.02;;;;;;;9.47;100.00;101214.59;5050709;28;20491;-54
2023/10/23 08:42:12;;;;;;;25.20;12.35;;;;;;;9.50;100.00;101218.78;5050281;28;20518;-54
2023/10/23 08:44:43;;;;;;;23.90;11.55;;;;;;;9.45;100.00;101213.81;5049584;28;20059;-55
2023/10/23 08:47:11;;;;;;;14.80;10.65;;;;;;;9.51;100.00;101217.88;5049918;28;20119;-56
2023/10/23 08:49:39;;;;;;;19.05;10.75;;;;;;;9.48;100.00;101216.25;5051953;28;20698;-57
2023/10/23 08:52:11;;;;;;;18.60;12.32;;;;;;;9.52;100.00;101222.19;5052982;28;20128;-56
2023/10/23 08:54:42;;;;;;;17.98;11.23;;;;;;;9.59;100.00;101213.03;5052932;28;20051;-55
2023/10/23 08:57:15;;;;;;;19.33;11.90;;;;;;;9.65;100.00;101214.47;5051586;28;20125;-55
2023/10/23 08:59:44;;;;;;;18.25;12.23;;;;;;;9.72;100.00;101215.84;5053059;28;20530;-55
2023/10/23 09:02:13;;;;;;;21.67;12.07;;;;;;;9.79;100.00;101209.31;5052911;28;20052;-52
2023/10/23 09:04:41;;;;;;;18.55;12.25;;;;;;;9.84;100.00;101208.22;5051426;28;20513;-54
2023/10/23 09:07:14;;;;;;;17.25;11.95;;;;;;;9.89;100.00;101219.31;5052776;28;20091;-52
2023/10/23 09:09:42;;;;;;;19.70;12.90;;;;;;;9.90;100.00;101216.59;5051689;28;20048;-54
2023/10/23 09:12:30;;;;;;;19.35;12.25;;;;;;;9.95;100.00;101214.56;5048744;28;20033;-55
2023/10/23 09:15:13;;;;;;;20.48;12.13;;;;;;;10.01;100.00;101207.25;5051257;28;20127;-55
2023/10/23 09:17:41;;;;;;;;;;;;;;;10.08;100.00;101212.06;5053519;28;20526;-56
2023/10/23 09:20:22;;;;;;;20.02;11.48;;;;;;;10.13;100.00;101212.66;5050797;28;19929;-54
2023/10/23 09:22:56;;;;;;;20.55;13.15;;;;;;;10.26;100.00;101210.16;5047969;28;20036;-56
2023/10/23 09:25:26;;;;;;;20.15;12.85;;;;;;;10.32;100.00;101209.81;5050292;28;20103;-50
2023/10/23 09:27:55;;;;;;;18.92;13.40;;;;;;;10.34;100.00;101211.53;5052031;28;20131;-57
2023/10/23 09:30:24;;;;;;;20.77;12.80;;;;;;;10.43;100.00;101205.72;5051125;28;20063;-57
2023/10/23 09:32:53;;;;;;;18.45;12.35;;;;;;;10.52;100.00;101213.06;5048384;28;20120;-44
2023/10/23 09:35:25;;;;;;;19.20;13.20;;;;;;;10.54;100.00;101213.00;5046704;28;20060;-46
2023/10/23 09:37:53;;;;;;;18.52;11.98;;;;;;;10.60;100.00;101216.09;5047887;28;20045;-46
2023/10/23 09:40:21;;;;;;;21.17;13.02;;;;;;;10.74;100.00;101211.81;5051940;28;20383;-45
2023/10/23 09:42:49;;;;;;;18.33;11.75;;;;;;;10.85;100.00;101204.09;5051966;28;20045;-44
2023/10/23 09:45:18;;;;;;;18.98;11.52;;;;;;;10.87;100.00;101207.50;5052006;28;20051;-44
2023/10/23 09:47:50;;;;;;;20.08;11.52;;;;;;;10.84;100.00;101207.69;5051989;28;20037;-47
2023/10/23 09:50:18;;;;;;;17.55;11.40;;;;;;;10.94;100.00;101203.56;5051939;28;20073;-46
2023/10/23 09:52:48;;;;;;;20.45;11.15;;;;;;;11.08;100.00;101207.97;5051725;28;20044;-46
2023/10/23 09:55:20;;;;;;;16.27;11.07;;;;;;;11.29;100.00;101218.97;5051616;28;20056;-48
2023/10/23 09:57:53;;;;;;;16.13;10.25;;;;;;;11.47;100.00;101216.13;5051747;28;20048;-47
2023/10/23 10:00:24;;;;;;;;;;;;;;;11.65;100.00;101206.22;5052275;28;20052;-49
2023/10/23 10:02:55;;;;;;;15.18;9.57;;;;;;;11.69;100.00;101202.44;5051557;28;19935;-47
2023/10/23 10:05:30;;;;;;;17.15;9.18;;;;;;;11.75;100.00;101206.47;5051613;28;20064;-47
2023/10/23 10:08:03;;;;;;;15.82;8.90;;;;;;;11.89;100.00;101200.28;5051921;28;20044;-46
2023/10/23 10:10:32;;;;;;;17.50;8.88;;;;;;;12.06;100.00;101204.50;5051650;28;20099;-47
2023/10/23 10:13:03;;;;;;;13.27;8.35;;;;;;;12.17;100.00;101202.88;5051534;28;20111;-49
2023/10/23 10:15:32;;;;;;;14.73;7.85;;;;;;;12.23;100.00;101198.09;5051665;28;20132;-46
2023/10/23 10:18:02;;;;;;;14.90;9.25;;;;;;;12.40;100.00;101192.56;5047340;28;20373;-46
2023/10/23 10:20:30;;;;;;;18.42;9.38;;;;;;;12.50;100.00;101195.41;5047178;28;20060;-45
2023/10/23 10:23:07;;;;;;;14.35;9.25;;;;;;;12.56;100.00;101200.28;5051564;28;20468;-46
2023/10/23 10:25:37;;;;;;;17.35;10.75;;;;;;;12.55;100.00;101198.59;5051543;28;20052;-46
2023/10/23 10:28:07;;;;;;;16.52;12.15;;;;;;;12.57;100.00;101196.69;5051498;28;20043;-47
2023/10/23 10:30:41;;;;;;;15.65;11.05;;;;;;;12.71;100.00;101193.13;5050768;28;20439;-45
2023/10/23 10:33:16;;;;;;;18.95;12.35;;;;;;;12.77;100.00;101191.84;5047502;28;20106;-45
2023/10/23 10:36:06;;;;;;;18.90;12.10;;;;;;;12.87;100.00;101187.63;5048937;28;20047;-46
2023/10/23 10:38:36;;;;;;;18.52;12.98;;;;;;;13.12;100.00;101188.56;5051280;28;20144;-47
2023/10/23 10:41:15;;;;;;;20.40;13.15;;;;;;;13.22;100.00;101192.22;5055415;28;20072;-46
2023/10/23 10:43:45;;;;;;;18.52;12.63;;;;;;;13.29;100.00;101188.22;5055512;28;20041;-46
2023/10/23 10:46:17;;;;;;;21.60;13.88;;;;;;;13.37;100.00;101176.28;5055356;28;20059;-45
2023/10/23 10:48:49;;;;;;;20.83;12.95;;;;;;;13.40;100.00;101166.31;5054956;28;20110;-45
2023/10/23 10:51:18;;;;;;;18.17;12.60;;;;;;;13.62;100.00;101152.41;5054887;28;20110;-46
2023/10/23 10:53:47;;;;;;;19.88;12.20;;;;;;;13.66;100.00;101153.00;5055031;28;20045;-46
2023/10/23 10:56:18;;;;;;;20.92;13.02;;;;;;;13.69;100.00;101151.00;5055549;28;20056;-48
2023/10/23 10:58:46;;;;;;;18.40;13.52;;;;;;;13.76;100.00;101145.28;5055332;28;20402;-45
2023/10/23 11:01:14;;;;;;;19.35;12.95;;;;;;;13.93;100.00;101133.44;5055196;28;20443;-49
2023/10/23 11:03:42;;;;;;;21.67;13.18;;;;;;;14.01;100.00;101139.81;5055090;28;20052;-48
2023/10/23 11:06:12;;;;;;;19.85;14.13;;;;;;;14.07;100.00;101135.03;5054993;28;20427;-47
2023/10/23 11:08:40;;;;;;;21.05;15.73;;;;;;;14.18;100.00;101129.78;5054931;28;20106;-47
2023/10/23 11:11:09;;;;;;;25.48;15.77;;;;;;;14.19;100.00;101131.44;5054947;28;20079;-46
2023/10/23 11:13:40;;;;;;;21.73;15.80;;;;;;;14.30;100.00;101130.63;5054760;28;20080;-47
2023/10/23 11:16:11;;;;;;;23.88;17.20;;;;;;;14.30;100.00;101115.63;5054753;28;20083;-46
2023/10/23 11:18:40;;;;;;;26.63;16.10;;;;;;;14.39;100.00;101122.00;5053234;28;20203;-54
2023/10/23 11:21:12;;;;;;;20.27;15.00;;;;;;;14.40;100.00;101117.53;5050660;28;20044;-55
2023/10/23 11:23:41;;;;;;;22.00;13.23;;;;;;;14.44;100.00;101108.41;5050805;28;20060;-54